Weather reports worldwide

Advertisment
Great Dun Fell, United Kingdom (3227): temperature & dewpoint: 21.04.2017 00:00:00 - 27.04.2017 00:00:00 (BST)Great Dun Fell, United Kingdom (3227): wind speed & gusts: 21.04.2017 00:00:00 - 27.04.2017 00:00:00 (BST)Great Dun Fell, United Kingdom (3227): wind direction: 21.04.2017 00:00:00 - 27.04.2017 00:00:00 (BST)
Date & Time tt [°C] td [°C] ff [km/h] ff [kn] fx [km/h] fx [kn] dd
27.04.2017 00:00:00 -0,6 -3,2 29 16 - - WNW
26.04.2017 23:00:00 -0,8 -3,3 21 11 - - NW
26.04.2017 22:00:00 -0,6 -4,0 24 13 - - NW
26.04.2017 21:00:00 -0,5 -4,3 18 10 - - NW
26.04.2017 20:00:00 -0,4 -4,9 18 10 - - NNW
26.04.2017 19:00:00 -0,2 -5,0 16 9 - - N
26.04.2017 18:00:00 0,1 -6,5 24 13 - - N
26.04.2017 17:00:00 0,4 -7,5 21 11 - - N
26.04.2017 16:00:00 -0,4 -7,7 18 10 - - N
26.04.2017 15:00:00 -1,3 -8,8 18 10 - - N
26.04.2017 14:00:00 -1,8 -8,4 16 9 - - N
26.04.2017 13:00:00 -2,1 -8,6 21 11 - - N
26.04.2017 12:00:00 -2,8 -8,4 21 11 - - NNE
26.04.2017 11:00:00 -2,9 -6,0 22 12 - - NNE
26.04.2017 10:00:00 -3,4 -6,6 31 17 - - NNE
26.04.2017 09:00:00 -3,9 -5,5 29 16 50 27 NNE
26.04.2017 08:00:00 -4,4 -5,2 37 20 54 29 NNE
26.04.2017 07:00:00 -4,8 -5,3 35 19 52 28 NNE
26.04.2017 06:00:00 -5,0 -5,6 34 18 48 26 NNE
26.04.2017 05:00:00 -4,8 -5,3 35 19 50 27 NNE
26.04.2017 04:00:00 -4,2 -4,6 37 20 52 28 NNE
26.04.2017 03:00:00 -3,9 -4,3 37 20 57 31 NNE
26.04.2017 02:00:00 -3,5 -3,8 39 21 65 35 NNE
26.04.2017 01:00:00 -3,1 -3,4 34 18 65 35 NNE
26.04.2017 00:00:00 -2,8 -3,1 44 24 67 36 NNE
25.04.2017 23:00:00 -2,6 -2,9 52 28 78 42 NNE
25.04.2017 22:00:00 -2,7 -3,0 54 29 81 44 NNE
25.04.2017 21:00:00 -2,5 -2,8 50 27 85 46 NNE
25.04.2017 20:00:00 -2,4 -2,7 57 31 83 45 NNE
25.04.2017 19:00:00 -2,4 -2,9 63 34 87 47 NNE
25.04.2017 18:00:00 -1,8 -2,4 50 27 83 45 N
25.04.2017 17:00:00 -1,7 -2,1 44 24 74 40 N
25.04.2017 16:00:00 -0,5 -2,7 44 24 70 38 N
25.04.2017 15:00:00 -2,4 -3,3 61 33 91 49 NNE
25.04.2017 14:00:00 -1,4 -3,2 46 25 76 41 N
25.04.2017 13:00:00 -0,4 -3,6 50 27 68 37 N
25.04.2017 12:00:00 -1,2 -4,2 50 27 72 39 N
25.04.2017 11:00:00 -2,3 -4,1 48 26 70 38 N
25.04.2017 10:00:00 -3,2 -4,8 48 26 68 37 NNW
25.04.2017 09:00:00 -3,9 -6,6 52 28 65 35 NNW
25.04.2017 08:00:00 -4,3 -6,3 50 27 65 35 N
25.04.2017 07:00:00 -4,6 -5,1 52 28 67 36 N
25.04.2017 06:00:00 -5,4 -5,8 52 28 67 36 N
25.04.2017 05:00:00 -5,1 -5,4 44 24 57 31 N
25.04.2017 04:00:00 -5,0 -5,2 31 17 - - N
25.04.2017 03:00:00 -5,5 -5,5 29 16 - - N
25.04.2017 02:00:00 -5,0 -5,7 34 18 - - N
25.04.2017 01:00:00 -4,7 -6,1 31 17 48 26 N
25.04.2017 00:00:00 -4,2 -6,0 44 24 52 28 NNW
24.04.2017 23:00:00 -4,5 -6,6 37 20 55 30 NW
24.04.2017 22:00:00 -4,0 -5,2 41 22 55 30 NW
24.04.2017 21:00:00 -3,5 -5,4 46 25 61 33 NW
24.04.2017 20:00:00 -3,6 -3,9 37 20 57 31 NW
24.04.2017 19:00:00 -3,8 -4,3 54 29 68 37 N
24.04.2017 18:00:00 -3,2 -3,8 54 29 74 40 NNW
24.04.2017 17:00:00 -0,1 -10,7 61 33 - - WNW
24.04.2017 16:00:00 0,2 -6,0 59 32 83 45 WNW
24.04.2017 15:00:00 0,7 -6,5 63 34 89 48 WNW
24.04.2017 14:00:00 0,6 -4,8 61 33 85 46 WNW
24.04.2017 13:00:00 0,9 -4,6 59 32 74 40 WNW
24.04.2017 12:00:00 1,1 -4,8 44 24 65 35 WNW
24.04.2017 11:00:00 0,6 -3,9 46 25 55 30 WNW
24.04.2017 10:00:00 0,4 -2,4 37 20 48 26 NW
24.04.2017 09:00:00 0,5 -0,4 39 21 61 33 NW
24.04.2017 08:00:00 1,0 1,0 48 26 72 39 WNW
24.04.2017 07:00:00 2,2 2,2 42 23 55 30 W
24.04.2017 06:00:00 2,0 2,0 50 27 78 42 W
24.04.2017 05:00:00 2,4 2,4 65 35 85 46 W
24.04.2017 04:00:00 2,8 2,8 68 37 81 44 W
24.04.2017 03:00:00 2,5 2,5 61 33 72 39 W
24.04.2017 02:00:00 1,6 1,6 57 31 67 36 W
24.04.2017 01:00:00 1,9 1,9 52 28 72 39 W
24.04.2017 00:00:00 2,0 2,0 61 33 76 41 W
23.04.2017 23:00:00 2,9 2,9 59 32 72 39 W
23.04.2017 22:00:00 2,6 2,6 54 29 59 32 W
23.04.2017 21:00:00 2,2 2,1 48 26 57 31 W
23.04.2017 20:00:00 2,5 0,5 46 25 54 29 W
23.04.2017 19:00:00 3,3 -1,8 46 25 61 33 WSW
23.04.2017 18:00:00 4,0 -1,1 50 27 63 34 W
23.04.2017 17:00:00 4,2 -1,8 50 27 57 31 W
23.04.2017 16:00:00 4,7 -1,0 42 23 55 30 W
23.04.2017 15:00:00 4,6 -1,0 35 19 50 27 W
23.04.2017 14:00:00 3,7 -0,8 31 17 - - W
23.04.2017 13:00:00 3,1 -1,8 28 15 - - WSW
23.04.2017 12:00:00 2,3 -4,0 18 10 - - W
23.04.2017 11:00:00 1,8 -4,2 15 8 - - W
23.04.2017 10:00:00 0,8 -5,4 13 7 - - W
23.04.2017 09:00:00 0,3 -5,5 11 6 - - W
23.04.2017 08:00:00 0,5 -3,7 9 5 - - W
23.04.2017 07:00:00 0,8 -6,4 8 4 - - W
23.04.2017 06:00:00 1,1 -0,8 4 2 - - NNE
23.04.2017 05:00:00 1,2 -1,1 8 4 - - NNW
23.04.2017 04:00:00 0,5 -0,4 9 5 - - WNW
23.04.2017 03:00:00 0,4 -0,4 8 4 - - W
23.04.2017 02:00:00 2,1 -0,6 15 8 - - NW
23.04.2017 01:00:00 1,1 1,1 8 4 - - W
23.04.2017 00:00:00 0,8 0,8 11 6 - - W
22.04.2017 23:00:00 1,2 1,1 15 8 - - WSW
22.04.2017 22:00:00 2,0 0,8 24 13 - - W
22.04.2017 21:00:00 2,0 -0,4 18 10 - - WNW
22.04.2017 20:00:00 2,7 -0,9 22 12 - - WNW
22.04.2017 19:00:00 3,6 -2,8 21 11 - - WNW
22.04.2017 18:00:00 3,7 -5,6 26 14 - - WNW
22.04.2017 17:00:00 3,8 -5,1 18 10 - - NW
22.04.2017 16:00:00 3,8 -4,8 21 11 - - WNW
22.04.2017 15:00:00 3,2 -4,8 24 13 - - WNW
22.04.2017 14:00:00 2,6 -4,2 16 9 - - NW
22.04.2017 13:00:00 2,4 -4,8 16 9 - - NW
22.04.2017 12:00:00 1,9 -3,9 21 11 - - WNW
22.04.2017 11:00:00 1,3 -3,6 13 7 - - WNW
22.04.2017 10:00:00 0,7 -6,0 9 5 - - NNE
22.04.2017 09:00:00 0,3 -4,8 15 8 - - NNE
22.04.2017 08:00:00 0,1 -6,5 15 8 - - NE
22.04.2017 07:00:00 -0,2 -0,2 11 6 - - N
22.04.2017 06:00:00 0,0 0,0 15 8 - - NNE
22.04.2017 05:00:00 1,0 0,7 16 9 - - N
22.04.2017 04:00:00 2,0 0,7 18 10 - - N
22.04.2017 03:00:00 1,1 0,4 18 10 - - N
22.04.2017 02:00:00 1,0 0,3 18 10 - - N
22.04.2017 01:00:00 1,4 1,0 22 12 - - N
22.04.2017 00:00:00 2,0 1,1 16 9 - - N
21.04.2017 23:00:00 1,9 1,9 22 12 - - NW
21.04.2017 22:00:00 2,6 2,6 29 16 - - NW
21.04.2017 21:00:00 3,2 3,0 29 16 48 26 NW
21.04.2017 20:00:00 4,0 3,3 35 19 54 29 NW
21.04.2017 19:00:00 4,6 4,0 48 26 65 35 WNW
21.04.2017 18:00:00 5,4 5,4 52 28 65 35 W
21.04.2017 17:00:00 5,4 5,4 54 29 67 36 W
21.04.2017 16:00:00 5,2 5,2 50 27 70 38 W
21.04.2017 15:00:00 5,1 5,1 54 29 72 39 W
21.04.2017 14:00:00 5,0 4,9 54 29 72 39 W
21.04.2017 13:00:00 5,0 5,0 59 32 76 41 W
21.04.2017 12:00:00 4,7 4,6 63 34 83 45 W
21.04.2017 11:00:00 4,7 4,6 61 33 87 47 W
21.04.2017 10:00:00 4,9 4,9 55 30 72 39 W
21.04.2017 09:00:00 4,5 4,5 57 31 78 42 W
21.04.2017 08:00:00 4,0 4,0 50 27 74 40 W
21.04.2017 07:00:00 4,2 4,2 54 29 63 34 W
21.04.2017 06:00:00 4,1 4,1 48 26 65 35 W
21.04.2017 05:00:00 4,2 4,2 55 30 70 38 W
21.04.2017 04:00:00 4,1 4,1 52 28 65 35 W
21.04.2017 03:00:00 3,6 3,5 46 25 68 37 W
21.04.2017 02:00:00 3,9 3,4 55 30 70 38 W
21.04.2017 01:00:00 4,0 4,0 52 28 63 34 W
21.04.2017 00:00:00 4,0 4,0 42 23 52 28 WNW

tt = temperature
td = dewpoint
ff = wind speed
fx = gusts
dd = wind direction

Next stations